Terminal Aerodrome Forecast
Issued by NWS

Home | Current Version | Previous Version | Text Only | Print | Product List | Glossary On
Versions: 1 2 3 4 5 6 7 8 9 10 11 12 13 14
958
FTUS43 KOAX 232320
TAFSNY
TAF
KSNY 232320Z 2400/2424 11009KT P6SM OVC060
     FM240400 12009KT 6SM -FZDZ VCSH OVC035
     FM240600 13009KT 3SM -SN BR OVC008
     FM241000 13005KT 1SM -SN BR OVC008
     FM241300 17006KT 2SM BR VCSH BKN008=

USA.gov is the U.S. government's official web portal to all federal, state and local government web resources and services.